sensor_id;sensor_type;location;lat;lon;timestamp;P1;durP1;ratioP1;P2;durP2;ratioP2
4274;SDS011;2151;50.988;11.068;2022-09-09T00:00:47;132.27;;;18.70;;
4274;SDS011;2151;50.988;11.068;2022-09-09T00:03:19;133.87;;;18.30;;
4274;SDS011;2151;50.988;11.068;2022-09-09T00:08:18;131.67;;;18.87;;
4274;SDS011;2151;50.988;11.068;2022-09-09T00:10:45;131.60;;;18.50;;
4274;SDS011;2151;50.988;11.068;2022-09-09T00:13:28;136.40;;;18.50;;
4274;SDS011;2151;50.988;11.068;2022-09-09T00:18:42;131.47;;;18.80;;
4274;SDS011;2151;50.988;11.068;2022-09-09T00:21:11;132.07;;;18.40;;
4274;SDS011;2151;50.988;11.068;2022-09-09T00:23:39;131.10;;;17.47;;
4274;SDS011;2151;50.988;11.068;2022-09-09T00:26:14;132.07;;;19.00;;
4274;SDS011;2151;50.988;11.068;2022-09-09T00:28:48;133.07;;;19.40;;
4274;SDS011;2151;50.988;11.068;2022-09-09T00:31:23;133.00;;;18.90;;
4274;SDS011;2151;50.988;11.068;2022-09-09T00:33:50;131.33;;;17.87;;
4274;SDS011;2151;50.988;11.068;2022-09-09T00:36:18;132.77;;;18.90;;
4274;SDS011;2151;50.988;11.068;2022-09-09T00:38:55;132.73;;;19.10;;
4274;SDS011;2151;50.988;11.068;2022-09-09T00:41:24;131.77;;;18.83;;
4274;SDS011;2151;50.988;11.068;2022-09-09T00:44:46;131.77;;;18.43;;
4274;SDS011;2151;50.988;11.068;2022-09-09T00:51:59;131.73;;;19.03;;
4274;SDS011;2151;50.988;11.068;2022-09-09T00:54:38;133.47;;;18.63;;
4274;SDS011;2151;50.988;11.068;2022-09-09T00:59:48;132.60;;;17.73;;
4274;SDS011;2151;50.988;11.068;2022-09-09T01:02:26;137.63;;;17.70;;
4274;SDS011;2151;50.988;11.068;2022-09-09T01:04:54;138.77;;;18.53;;
4274;SDS011;2151;50.988;11.068;2022-09-09T01:07:20;133.43;;;18.40;;
4274;SDS011;2151;50.988;11.068;2022-09-09T01:12:17;132.20;;;19.00;;
4274;SDS011;2151;50.988;11.068;2022-09-09T01:14:48;136.00;;;17.97;;
4274;SDS011;2151;50.988;11.068;2022-09-09T01:17:16;135.10;;;19.40;;
4274;SDS011;2151;50.988;11.068;2022-09-09T01:22:56;131.93;;;18.17;;
4274;SDS011;2151;50.988;11.068;2022-09-09T01:25:19;130.80;;;17.40;;
4274;SDS011;2151;50.988;11.068;2022-09-09T01:27:49;131.17;;;18.13;;
4274;SDS011;2151;50.988;11.068;2022-09-09T01:30:17;132.07;;;18.53;;
4274;SDS011;2151;50.988;11.068;2022-09-09T01:32:45;131.30;;;17.80;;
4274;SDS011;2151;50.988;11.068;2022-09-09T01:35:15;134.20;;;18.53;;
4274;SDS011;2151;50.988;11.068;2022-09-09T01:37:45;131.63;;;18.60;;
4274;SDS011;2151;50.988;11.068;2022-09-09T01:40:11;132.47;;;16.77;;
4274;SDS011;2151;50.988;11.068;2022-09-09T01:42:37;132.57;;;18.70;;
4274;SDS011;2151;50.988;11.068;2022-09-09T01:45:04;132.30;;;18.47;;
4274;SDS011;2151;50.988;11.068;2022-09-09T01:47:31;130.37;;;17.37;;
4274;SDS011;2151;50.988;11.068;2022-09-09T01:49:57;134.90;;;18.60;;
4274;SDS011;2151;50.988;11.068;2022-09-09T01:52:24;130.60;;;17.10;;
4274;SDS011;2151;50.988;11.068;2022-09-09T01:54:51;130.40;;;17.50;;
4274;SDS011;2151;50.988;11.068;2022-09-09T01:57:25;141.30;;;16.47;;
4274;SDS011;2151;50.988;11.068;2022-09-09T02:02:56;131.47;;;17.57;;
4274;SDS011;2151;50.988;11.068;2022-09-09T02:05:36;132.17;;;17.87;;
4274;SDS011;2151;50.988;11.068;2022-09-09T02:08:07;132.60;;;16.07;;
4274;SDS011;2151;50.988;11.068;2022-09-09T02:13:18;131.70;;;17.70;;
4274;SDS011;2151;50.988;11.068;2022-09-09T02:18:15;130.47;;;17.00;;
4274;SDS011;2151;50.988;11.068;2022-09-09T02:20:43;135.47;;;18.00;;
4274;SDS011;2151;50.988;11.068;2022-09-09T02:23:11;132.90;;;19.03;;
4274;SDS011;2151;50.988;11.068;2022-09-09T02:25:37;131.60;;;16.17;;
4274;SDS011;2151;50.988;11.068;2022-09-09T02:28:05;131.40;;;17.40;;
4274;SDS011;2151;50.988;11.068;2022-09-09T02:30:32;132.47;;;16.70;;
4274;SDS011;2151;50.988;11.068;2022-09-09T02:33:01;130.07;;;17.13;;
4274;SDS011;2151;50.988;11.068;2022-09-09T02:35:30;133.27;;;18.57;;
4274;SDS011;2151;50.988;11.068;2022-09-09T02:37:58;133.07;;;17.20;;
4274;SDS011;2151;50.988;11.068;2022-09-09T02:40:25;131.10;;;17.10;;
4274;SDS011;2151;50.988;11.068;2022-09-09T02:42:53;131.57;;;17.83;;
4274;SDS011;2151;50.988;11.068;2022-09-09T02:45:20;132.77;;;18.87;;
4274;SDS011;2151;50.988;11.068;2022-09-09T02:53:21;131.47;;;17.07;;
4274;SDS011;2151;50.988;11.068;2022-09-09T02:55:57;132.67;;;17.60;;
4274;SDS011;2151;50.988;11.068;2022-09-09T02:58:25;132.87;;;18.50;;
4274;SDS011;2151;50.988;11.068;2022-09-09T03:00:52;131.80;;;17.90;;
4274;SDS011;2151;50.988;11.068;2022-09-09T03:03:19;131.77;;;17.87;;
4274;SDS011;2151;50.988;11.068;2022-09-09T03:05:46;134.47;;;19.33;;
4274;SDS011;2151;50.988;11.068;2022-09-09T03:08:13;133.57;;;20.40;;
4274;SDS011;2151;50.988;11.068;2022-09-09T03:10:39;133.07;;;18.87;;
4274;SDS011;2151;50.988;11.068;2022-09-09T03:13:06;133.90;;;20.70;;
4274;SDS011;2151;50.988;11.068;2022-09-09T03:15:33;135.07;;;21.50;;
4274;SDS011;2151;50.988;11.068;2022-09-09T03:17:59;133.67;;;20.23;;
4274;SDS011;2151;50.988;11.068;2022-09-09T03:20:27;132.73;;;19.40;;
4274;SDS011;2151;50.988;11.068;2022-09-09T03:22:54;133.87;;;20.97;;
4274;SDS011;2151;50.988;11.068;2022-09-09T03:25:21;134.47;;;21.50;;
4274;SDS011;2151;50.988;11.068;2022-09-09T03:27:50;135.27;;;21.43;;
4274;SDS011;2151;50.988;11.068;2022-09-09T03:30:16;134.20;;;21.20;;
4274;SDS011;2151;50.988;11.068;2022-09-09T03:32:42;133.80;;;20.30;;
4274;SDS011;2151;50.988;11.068;2022-09-09T03:35:14;139.10;;;20.50;;
4274;SDS011;2151;50.988;11.068;2022-09-09T03:37:41;132.97;;;18.73;;
4274;SDS011;2151;50.988;11.068;2022-09-09T03:40:08;132.47;;;20.10;;
4274;SDS011;2151;50.988;11.068;2022-09-09T03:42:36;134.47;;;21.53;;
4274;SDS011;2151;50.988;11.068;2022-09-09T03:45:07;137.17;;;22.20;;
4274;SDS011;2151;50.988;11.068;2022-09-09T03:47:33;132.90;;;19.63;;
4274;SDS011;2151;50.988;11.068;2022-09-09T03:50:00;133.40;;;20.50;;
4274;SDS011;2151;50.988;11.068;2022-09-09T03:52:26;135.93;;;22.50;;
4274;SDS011;2151;50.988;11.068;2022-09-09T03:54:53;136.10;;;21.00;;
4274;SDS011;2151;50.988;11.068;2022-09-09T03:57:20;138.70;;;20.17;;
4274;SDS011;2151;50.988;11.068;2022-09-09T03:59:46;133.43;;;20.10;;
4274;SDS011;2151;50.988;11.068;2022-09-09T04:02:12;136.27;;;20.60;;
4274;SDS011;2151;50.988;11.068;2022-09-09T04:04:39;133.73;;;19.30;;
4274;SDS011;2151;50.988;11.068;2022-09-09T04:07:05;132.53;;;18.70;;
4274;SDS011;2151;50.988;11.068;2022-09-09T04:09:35;134.17;;;20.77;;
4274;SDS011;2151;50.988;11.068;2022-09-09T04:12:01;134.57;;;21.50;;
4274;SDS011;2151;50.988;11.068;2022-09-09T04:14:28;135.60;;;22.20;;
4274;SDS011;2151;50.988;11.068;2022-09-09T04:16:55;135.47;;;22.83;;
4274;SDS011;2151;50.988;11.068;2022-09-09T04:19:23;137.20;;;23.40;;
4274;SDS011;2151;50.988;11.068;2022-09-09T04:21:49;138.77;;;22.03;;
4274;SDS011;2151;50.988;11.068;2022-09-09T04:24:17;135.07;;;22.27;;
4274;SDS011;2151;50.988;11.068;2022-09-09T04:26:44;138.80;;;23.20;;
4274;SDS011;2151;50.988;11.068;2022-09-09T04:29:11;135.30;;;23.20;;
4274;SDS011;2151;50.988;11.068;2022-09-09T04:31:37;136.10;;;23.23;;
4274;SDS011;2151;50.988;11.068;2022-09-09T04:34:11;135.47;;;22.27;;
4274;SDS011;2151;50.988;11.068;2022-09-09T04:36:37;136.70;;;23.70;;
4274;SDS011;2151;50.988;11.068;2022-09-09T04:39:06;134.27;;;21.10;;
4274;SDS011;2151;50.988;11.068;2022-09-09T04:41:33;134.17;;;20.70;;
4274;SDS011;2151;50.988;11.068;2022-09-09T04:43:59;135.20;;;19.70;;
4274;SDS011;2151;50.988;11.068;2022-09-09T04:46:26;132.90;;;17.60;;
4274;SDS011;2151;50.988;11.068;2022-09-09T04:48:53;134.43;;;19.03;;
4274;SDS011;2151;50.988;11.068;2022-09-09T04:51:19;131.40;;;17.57;;
4274;SDS011;2151;50.988;11.068;2022-09-09T04:53:46;132.07;;;18.37;;
4274;SDS011;2151;50.988;11.068;2022-09-09T04:56:17;133.17;;;17.60;;
4274;SDS011;2151;50.988;11.068;2022-09-09T04:58:43;130.47;;;17.40;;
4274;SDS011;2151;50.988;11.068;2022-09-09T05:03:36;131.00;;;17.20;;
4274;SDS011;2151;50.988;11.068;2022-09-09T05:06:04;138.47;;;17.40;;
4274;SDS011;2151;50.988;11.068;2022-09-09T05:08:31;131.17;;;17.27;;
4274;SDS011;2151;50.988;11.068;2022-09-09T05:10:57;130.80;;;16.87;;
4274;SDS011;2151;50.988;11.068;2022-09-09T05:13:26;131.70;;;17.67;;
4274;SDS011;2151;50.988;11.068;2022-09-09T05:15:53;132.27;;;16.40;;
4274;SDS011;2151;50.988;11.068;2022-09-09T05:18:19;131.13;;;17.00;;
4274;SDS011;2151;50.988;11.068;2022-09-09T05:20:46;132.20;;;17.03;;
4274;SDS011;2151;50.988;11.068;2022-09-09T05:23:12;131.27;;;18.30;;
4274;SDS011;2151;50.988;11.068;2022-09-09T05:25:39;130.20;;;17.40;;
4274;SDS011;2151;50.988;11.068;2022-09-09T05:28:06;130.67;;;16.63;;
4274;SDS011;2151;50.988;11.068;2022-09-09T05:30:33;131.80;;;17.57;;
4274;SDS011;2151;50.988;11.068;2022-09-09T05:33:00;130.97;;;16.80;;
4274;SDS011;2151;50.988;11.068;2022-09-09T05:35:26;130.23;;;17.07;;
4274;SDS011;2151;50.988;11.068;2022-09-09T05:37:53;134.27;;;17.93;;
4274;SDS011;2151;50.988;11.068;2022-09-09T05:40:19;131.60;;;17.87;;
4274;SDS011;2151;50.988;11.068;2022-09-09T05:42:47;131.60;;;18.17;;
4274;SDS011;2151;50.988;11.068;2022-09-09T05:45:13;132.60;;;18.97;;
4274;SDS011;2151;50.988;11.068;2022-09-09T05:47:40;132.27;;;18.40;;
4274;SDS011;2151;50.988;11.068;2022-09-09T05:50:06;134.40;;;18.70;;
4274;SDS011;2151;50.988;11.068;2022-09-09T05:52:33;135.50;;;18.30;;
4274;SDS011;2151;50.988;11.068;2022-09-09T05:55:00;133.30;;;19.17;;
4274;SDS011;2151;50.988;11.068;2022-09-09T05:57:26;135.90;;;20.77;;
4274;SDS011;2151;50.988;11.068;2022-09-09T05:59:52;136.60;;;22.73;;
4274;SDS011;2151;50.988;11.068;2022-09-09T06:02:19;134.17;;;20.57;;
4274;SDS011;2151;50.988;11.068;2022-09-09T06:04:46;137.37;;;22.60;;
4274;SDS011;2151;50.988;11.068;2022-09-09T06:07:12;136.57;;;23.50;;
4274;SDS011;2151;50.988;11.068;2022-09-09T06:09:40;137.90;;;23.13;;
4274;SDS011;2151;50.988;11.068;2022-09-09T06:12:07;137.30;;;22.47;;
4274;SDS011;2151;50.988;11.068;2022-09-09T06:14:33;139.53;;;21.90;;
4274;SDS011;2151;50.988;11.068;2022-09-09T06:17:00;138.97;;;24.10;;
4274;SDS011;2151;50.988;11.068;2022-09-09T06:19:26;135.07;;;20.30;;
4274;SDS011;2151;50.988;11.068;2022-09-09T06:21:52;136.47;;;20.57;;
4274;SDS011;2151;50.988;11.068;2022-09-09T06:24:19;136.57;;;18.97;;
4274;SDS011;2151;50.988;11.068;2022-09-09T06:26:46;137.37;;;18.87;;
4274;SDS011;2151;50.988;11.068;2022-09-09T06:29:12;137.37;;;17.73;;
4274;SDS011;2151;50.988;11.068;2022-09-09T06:31:38;138.27;;;16.47;;
4274;SDS011;2151;50.988;11.068;2022-09-09T06:34:05;138.03;;;15.80;;
4274;SDS011;2151;50.988;11.068;2022-09-09T06:36:33;134.40;;;14.17;;
4274;SDS011;2151;50.988;11.068;2022-09-09T06:39:00;135.07;;;12.03;;
4274;SDS011;2151;50.988;11.068;2022-09-09T06:41:27;132.53;;;10.00;;
4274;SDS011;2151;50.988;11.068;2022-09-09T06:43:54;132.87;;;10.10;;
4274;SDS011;2151;50.988;11.068;2022-09-09T06:46:30;132.60;;;9.60;;
4274;SDS011;2151;50.988;11.068;2022-09-09T06:48:59;130.97;;;8.80;;
4274;SDS011;2151;50.988;11.068;2022-09-09T06:51:27;129.77;;;8.23;;
4274;SDS011;2151;50.988;11.068;2022-09-09T06:53:55;128.87;;;8.30;;
4274;SDS011;2151;50.988;11.068;2022-09-09T06:56:23;135.07;;;8.43;;
4274;SDS011;2151;50.988;11.068;2022-09-09T06:58:51;127.67;;;7.90;;
4274;SDS011;2151;50.988;11.068;2022-09-09T07:01:22;129.20;;;8.03;;
4274;SDS011;2151;50.988;11.068;2022-09-09T07:03:50;129.30;;;7.67;;
4274;SDS011;2151;50.988;11.068;2022-09-09T07:06:18;126.97;;;7.33;;
4274;SDS011;2151;50.988;11.068;2022-09-09T07:08:48;127.17;;;7.47;;
4274;SDS011;2151;50.988;11.068;2022-09-09T07:11:22;125.83;;;6.87;;
4274;SDS011;2151;50.988;11.068;2022-09-09T07:13:50;125.30;;;7.00;;
4274;SDS011;2151;50.988;11.068;2022-09-09T07:16:16;126.20;;;7.10;;
4274;SDS011;2151;50.988;11.068;2022-09-09T07:18:44;125.30;;;6.83;;
4274;SDS011;2151;50.988;11.068;2022-09-09T07:21:11;125.63;;;6.60;;
4274;SDS011;2151;50.988;11.068;2022-09-09T07:23:40;125.40;;;6.57;;
4274;SDS011;2151;50.988;11.068;2022-09-09T07:26:08;123.63;;;5.93;;
4274;SDS011;2151;50.988;11.068;2022-09-09T07:28:34;123.67;;;5.80;;
4274;SDS011;2151;50.988;11.068;2022-09-09T07:31:01;119.67;;;5.60;;
4274;SDS011;2151;50.988;11.068;2022-09-09T07:33:31;121.07;;;5.43;;
4274;SDS011;2151;50.988;11.068;2022-09-09T07:36:08;119.07;;;5.67;;
4274;SDS011;2151;50.988;11.068;2022-09-09T07:38:41;121.47;;;5.30;;
4274;SDS011;2151;50.988;11.068;2022-09-09T07:41:10;119.07;;;5.50;;
4274;SDS011;2151;50.988;11.068;2022-09-09T07:43:44;119.17;;;5.23;;
4274;SDS011;2151;50.988;11.068;2022-09-09T07:46:10;122.30;;;5.33;;
4274;SDS011;2151;50.988;11.068;2022-09-09T07:48:38;128.60;;;5.50;;
4274;SDS011;2151;50.988;11.068;2022-09-09T07:51:09;118.00;;;5.57;;
4274;SDS011;2151;50.988;11.068;2022-09-09T07:53:38;120.60;;;5.47;;
4274;SDS011;2151;50.988;11.068;2022-09-09T07:56:08;118.53;;;5.30;;
4274;SDS011;2151;50.988;11.068;2022-09-09T07:58:36;119.97;;;5.60;;
4274;SDS011;2151;50.988;11.068;2022-09-09T08:01:10;117.30;;;5.20;;
4274;SDS011;2151;50.988;11.068;2022-09-09T08:03:37;119.47;;;6.00;;
4274;SDS011;2151;50.988;11.068;2022-09-09T08:06:05;118.07;;;5.63;;
4274;SDS011;2151;50.988;11.068;2022-09-09T08:08:33;121.60;;;5.53;;
4274;SDS011;2151;50.988;11.068;2022-09-09T08:11:04;118.20;;;5.77;;
4274;SDS011;2151;50.988;11.068;2022-09-09T08:13:31;119.67;;;5.80;;
4274;SDS011;2151;50.988;11.068;2022-09-09T08:16:32;120.63;;;5.97;;
4274;SDS011;2151;50.988;11.068;2022-09-09T08:18:50;118.13;;;5.33;;
4274;SDS011;2151;50.988;11.068;2022-09-09T08:21:18;117.87;;;5.50;;
4274;SDS011;2151;50.988;11.068;2022-09-09T08:23:45;117.30;;;4.83;;
4274;SDS011;2151;50.988;11.068;2022-09-09T08:26:14;116.83;;;5.30;;
4274;SDS011;2151;50.988;11.068;2022-09-09T08:28:41;117.27;;;5.27;;
4274;SDS011;2151;50.988;11.068;2022-09-09T08:31:15;117.60;;;5.40;;
4274;SDS011;2151;50.988;11.068;2022-09-09T08:33:42;120.77;;;5.03;;
4274;SDS011;2151;50.988;11.068;2022-09-09T08:36:10;124.50;;;6.10;;
4274;SDS011;2151;50.988;11.068;2022-09-09T08:38:37;125.60;;;7.03;;
4274;SDS011;2151;50.988;11.068;2022-09-09T08:41:07;121.53;;;5.50;;
4274;SDS011;2151;50.988;11.068;2022-09-09T08:43:36;117.37;;;5.50;;
4274;SDS011;2151;50.988;11.068;2022-09-09T08:46:09;118.27;;;5.53;;
4274;SDS011;2151;50.988;11.068;2022-09-09T08:51:09;117.10;;;5.30;;
4274;SDS011;2151;50.988;11.068;2022-09-09T08:53:38;117.90;;;5.60;;
4274;SDS011;2151;50.988;11.068;2022-09-09T08:56:18;117.13;;;4.80;;
4274;SDS011;2151;50.988;11.068;2022-09-09T09:11:50;118.57;;;6.27;;
4274;SDS011;2151;50.988;11.068;2022-09-09T09:14:24;118.03;;;6.40;;
4274;SDS011;2151;50.988;11.068;2022-09-09T09:19:17;116.13;;;5.37;;
4274;SDS011;2151;50.988;11.068;2022-09-09T09:24:18;117.10;;;5.47;;
4274;SDS011;2151;50.988;11.068;2022-09-09T09:26:47;116.60;;;5.10;;
4274;SDS011;2151;50.988;11.068;2022-09-09T09:29:18;118.83;;;5.50;;
4274;SDS011;2151;50.988;11.068;2022-09-09T09:31:52;115.30;;;5.07;;
4274;SDS011;2151;50.988;11.068;2022-09-09T09:34:20;119.73;;;5.10;;
4274;SDS011;2151;50.988;11.068;2022-09-09T09:36:52;117.10;;;4.93;;
4274;SDS011;2151;50.988;11.068;2022-09-09T09:39:32;115.60;;;5.17;;
4274;SDS011;2151;50.988;11.068;2022-09-09T09:42:24;118.47;;;5.10;;
4274;SDS011;2151;50.988;11.068;2022-09-09T09:44:51;120.60;;;4.73;;
4274;SDS011;2151;50.988;11.068;2022-09-09T09:47:18;120.07;;;5.07;;
4274;SDS011;2151;50.988;11.068;2022-09-09T09:49:52;116.87;;;4.77;;
4274;SDS011;2151;50.988;11.068;2022-09-09T09:52:21;123.40;;;5.40;;
4274;SDS011;2151;50.988;11.068;2022-09-09T09:54:48;116.17;;;5.30;;
4274;SDS011;2151;50.988;11.068;2022-09-09T09:57:14;116.03;;;5.13;;
4274;SDS011;2151;50.988;11.068;2022-09-09T09:59:42;116.53;;;5.97;;
4274;SDS011;2151;50.988;11.068;2022-09-09T10:02:16;117.40;;;4.80;;
4274;SDS011;2151;50.988;11.068;2022-09-09T10:04:42;115.97;;;4.77;;
4274;SDS011;2151;50.988;11.068;2022-09-09T10:07:19;117.80;;;5.00;;
4274;SDS011;2151;50.988;11.068;2022-09-09T10:09:53;118.07;;;5.47;;
4274;SDS011;2151;50.988;11.068;2022-09-09T10:12:24;118.43;;;5.70;;
4274;SDS011;2151;50.988;11.068;2022-09-09T10:14:59;118.07;;;5.67;;
4274;SDS011;2151;50.988;11.068;2022-09-09T10:20:13;115.07;;;5.00;;
4274;SDS011;2151;50.988;11.068;2022-09-09T10:22:47;114.87;;;5.10;;
4274;SDS011;2151;50.988;11.068;2022-09-09T10:32:45;117.37;;;5.10;;
4274;SDS011;2151;50.988;11.068;2022-09-09T10:45:45;115.20;;;4.40;;
4274;SDS011;2151;50.988;11.068;2022-09-09T10:48:20;113.37;;;5.30;;
4274;SDS011;2151;50.988;11.068;2022-09-09T10:50:56;121.47;;;7.50;;
4274;SDS011;2151;50.988;11.068;2022-09-09T10:53:34;111.63;;;4.13;;
4274;SDS011;2151;50.988;11.068;2022-09-09T10:56:06;113.67;;;4.00;;
4274;SDS011;2151;50.988;11.068;2022-09-09T10:58:39;117.57;;;4.60;;
4274;SDS011;2151;50.988;11.068;2022-09-09T11:01:30;113.17;;;4.20;;
4274;SDS011;2151;50.988;11.068;2022-09-09T11:04:00;111.97;;;4.43;;
4274;SDS011;2151;50.988;11.068;2022-09-09T11:06:30;112.87;;;4.40;;
4274;SDS011;2151;50.988;11.068;2022-09-09T11:08:59;112.50;;;4.70;;
4274;SDS011;2151;50.988;11.068;2022-09-09T11:11:51;113.20;;;4.70;;
4274;SDS011;2151;50.988;11.068;2022-09-09T11:14:28;112.70;;;4.93;;
4274;SDS011;2151;50.988;11.068;2022-09-09T11:17:07;115.17;;;4.40;;
4274;SDS011;2151;50.988;11.068;2022-09-09T11:22:02;114.53;;;4.63;;
4274;SDS011;2151;50.988;11.068;2022-09-09T11:27:32;113.67;;;4.27;;
4274;SDS011;2151;50.988;11.068;2022-09-09T11:40:45;114.90;;;4.37;;
4274;SDS011;2151;50.988;11.068;2022-09-09T11:43:22;116.80;;;4.33;;
4274;SDS011;2151;50.988;11.068;2022-09-09T11:45:53;114.47;;;4.57;;
4274;SDS011;2151;50.988;11.068;2022-09-09T11:48:28;121.90;;;4.30;;
4274;SDS011;2151;50.988;11.068;2022-09-09T11:51:29;114.87;;;4.57;;
4274;SDS011;2151;50.988;11.068;2022-09-09T11:53:51;117.57;;;4.50;;
4274;SDS011;2151;50.988;11.068;2022-09-09T11:59:01;119.77;;;5.47;;
4274;SDS011;2151;50.988;11.068;2022-09-09T12:01:42;119.87;;;4.90;;
4274;SDS011;2151;50.988;11.068;2022-09-09T12:06:43;117.87;;;5.30;;
4274;SDS011;2151;50.988;11.068;2022-09-09T12:09:26;116.23;;;5.20;;
4274;SDS011;2151;50.988;11.068;2022-09-09T12:12:04;115.83;;;4.70;;
4274;SDS011;2151;50.988;11.068;2022-09-09T12:19:37;116.37;;;4.93;;
4274;SDS011;2151;50.988;11.068;2022-09-09T12:22:25;116.00;;;4.27;;
4274;SDS011;2151;50.988;11.068;2022-09-09T12:27:57;115.27;;;4.90;;
4274;SDS011;2151;50.988;11.068;2022-09-09T12:30:29;115.40;;;4.77;;
4274;SDS011;2151;50.988;11.068;2022-09-09T12:33:01;114.70;;;4.27;;
4274;SDS011;2151;50.988;11.068;2022-09-09T12:35:28;116.73;;;4.67;;
4274;SDS011;2151;50.988;11.068;2022-09-09T12:37:56;114.87;;;4.50;;
4274;SDS011;2151;50.988;11.068;2022-09-09T12:40:28;114.93;;;5.10;;
4274;SDS011;2151;50.988;11.068;2022-09-09T12:42:54;113.80;;;5.00;;
4274;SDS011;2151;50.988;11.068;2022-09-09T12:45:26;113.80;;;4.97;;
4274;SDS011;2151;50.988;11.068;2022-09-09T12:50:26;114.27;;;4.17;;
4274;SDS011;2151;50.988;11.068;2022-09-09T12:52:54;113.77;;;4.20;;
4274;SDS011;2151;50.988;11.068;2022-09-09T12:55:23;114.40;;;4.53;;
4274;SDS011;2151;50.988;11.068;2022-09-09T12:57:51;116.30;;;4.90;;
4274;SDS011;2151;50.988;11.068;2022-09-09T13:00:19;116.47;;;4.70;;
4274;SDS011;2151;50.988;11.068;2022-09-09T13:02:47;118.17;;;4.87;;
4274;SDS011;2151;50.988;11.068;2022-09-09T13:05:15;117.90;;;4.30;;
4274;SDS011;2151;50.988;11.068;2022-09-09T13:07:43;117.17;;;4.07;;
4274;SDS011;2151;50.988;11.068;2022-09-09T13:10:12;118.50;;;4.37;;
4274;SDS011;2151;50.988;11.068;2022-09-09T13:12:50;115.37;;;4.13;;
4274;SDS011;2151;50.988;11.068;2022-09-09T13:15:26;115.20;;;4.33;;
4274;SDS011;2151;50.988;11.068;2022-09-09T13:17:55;113.57;;;4.20;;
4274;SDS011;2151;50.988;11.068;2022-09-09T13:20:22;117.93;;;4.43;;
4274;SDS011;2151;50.988;11.068;2022-09-09T13:22:49;114.67;;;4.30;;
4274;SDS011;2151;50.988;11.068;2022-09-09T13:27:51;114.77;;;4.40;;
4274;SDS011;2151;50.988;11.068;2022-09-09T13:30:20;113.77;;;4.00;;
4274;SDS011;2151;50.988;11.068;2022-09-09T13:35:30;115.10;;;4.17;;
4274;SDS011;2151;50.988;11.068;2022-09-09T13:37:58;114.73;;;4.57;;
4274;SDS011;2151;50.988;11.068;2022-09-09T13:40:24;122.20;;;4.50;;
4274;SDS011;2151;50.988;11.068;2022-09-09T13:42:52;114.90;;;4.30;;
4274;SDS011;2151;50.988;11.068;2022-09-09T13:45:20;113.90;;;4.00;;
4274;SDS011;2151;50.988;11.068;2022-09-09T13:47:47;114.17;;;4.23;;
4274;SDS011;2151;50.988;11.068;2022-09-09T13:50:21;114.30;;;4.00;;
4274;SDS011;2151;50.988;11.068;2022-09-09T13:52:52;114.40;;;4.40;;
4274;SDS011;2151;50.988;11.068;2022-09-09T13:55:20;114.20;;;4.00;;
4274;SDS011;2151;50.988;11.068;2022-09-09T13:57:54;114.17;;;4.10;;
4274;SDS011;2151;50.988;11.068;2022-09-09T14:00:21;113.60;;;3.73;;
4274;SDS011;2151;50.988;11.068;2022-09-09T14:02:48;115.17;;;4.40;;
4274;SDS011;2151;50.988;11.068;2022-09-09T14:05:14;114.77;;;4.07;;
4274;SDS011;2151;50.988;11.068;2022-09-09T14:07:42;114.37;;;4.33;;
4274;SDS011;2151;50.988;11.068;2022-09-09T14:10:09;114.57;;;4.20;;
4274;SDS011;2151;50.988;11.068;2022-09-09T14:12:36;114.67;;;4.13;;
4274;SDS011;2151;50.988;11.068;2022-09-09T14:15:05;114.77;;;4.30;;
4274;SDS011;2151;50.988;11.068;2022-09-09T14:17:33;118.90;;;4.17;;
4274;SDS011;2151;50.988;11.068;2022-09-09T14:19:59;115.33;;;4.10;;
4274;SDS011;2151;50.988;11.068;2022-09-09T14:22:26;114.27;;;4.30;;
4274;SDS011;2151;50.988;11.068;2022-09-09T14:24:52;114.37;;;4.07;;
4274;SDS011;2151;50.988;11.068;2022-09-09T14:27:18;115.07;;;4.07;;
4274;SDS011;2151;50.988;11.068;2022-09-09T14:29:45;114.23;;;4.10;;
4274;SDS011;2151;50.988;11.068;2022-09-09T14:32:12;114.20;;;3.90;;
4274;SDS011;2151;50.988;11.068;2022-09-09T14:34:38;115.17;;;4.40;;
4274;SDS011;2151;50.988;11.068;2022-09-09T14:37:05;114.57;;;4.00;;
4274;SDS011;2151;50.988;11.068;2022-09-09T14:39:31;116.67;;;4.50;;
4274;SDS011;2151;50.988;11.068;2022-09-09T14:41:57;115.83;;;4.27;;
4274;SDS011;2151;50.988;11.068;2022-09-09T14:44:24;115.90;;;4.30;;
4274;SDS011;2151;50.988;11.068;2022-09-09T14:46:50;118.40;;;4.40;;
4274;SDS011;2151;50.988;11.068;2022-09-09T14:49:17;114.90;;;4.30;;
4274;SDS011;2151;50.988;11.068;2022-09-09T14:51:43;115.10;;;4.63;;
4274;SDS011;2151;50.988;11.068;2022-09-09T14:54:09;121.83;;;4.40;;
4274;SDS011;2151;50.988;11.068;2022-09-09T14:56:37;116.50;;;4.67;;
4274;SDS011;2151;50.988;11.068;2022-09-09T14:59:04;115.40;;;4.43;;
4274;SDS011;2151;50.988;11.068;2022-09-09T15:01:30;115.87;;;4.30;;
4274;SDS011;2151;50.988;11.068;2022-09-09T15:03:58;115.70;;;4.27;;
4274;SDS011;2151;50.988;11.068;2022-09-09T15:06:26;115.10;;;4.53;;
4274;SDS011;2151;50.988;11.068;2022-09-09T15:08:53;115.07;;;4.80;;
4274;SDS011;2151;50.988;11.068;2022-09-09T15:11:20;115.87;;;4.87;;
4274;SDS011;2151;50.988;11.068;2022-09-09T15:13:47;125.77;;;5.30;;
4274;SDS011;2151;50.988;11.068;2022-09-09T15:16:14;116.77;;;4.97;;
4274;SDS011;2151;50.988;11.068;2022-09-09T15:18:41;117.90;;;5.10;;
4274;SDS011;2151;50.988;11.068;2022-09-09T15:21:13;116.10;;;4.77;;
4274;SDS011;2151;50.988;11.068;2022-09-09T15:23:40;116.47;;;4.50;;
4274;SDS011;2151;50.988;11.068;2022-09-09T15:26:06;115.87;;;4.43;;
4274;SDS011;2151;50.988;11.068;2022-09-09T15:28:33;116.50;;;4.43;;
4274;SDS011;2151;50.988;11.068;2022-09-09T15:31:08;115.87;;;4.63;;
4274;SDS011;2151;50.988;11.068;2022-09-09T15:33:35;115.10;;;4.63;;
4274;SDS011;2151;50.988;11.068;2022-09-09T15:38:40;117.10;;;4.27;;
4274;SDS011;2151;50.988;11.068;2022-09-09T15:41:07;117.60;;;4.90;;
4274;SDS011;2151;50.988;11.068;2022-09-09T15:43:33;116.87;;;4.37;;
4274;SDS011;2151;50.988;11.068;2022-09-09T15:46:05;115.63;;;4.57;;
4274;SDS011;2151;50.988;11.068;2022-09-09T15:48:35;116.57;;;5.50;;
4274;SDS011;2151;50.988;11.068;2022-09-09T15:51:06;116.37;;;5.00;;
4274;SDS011;2151;50.988;11.068;2022-09-09T15:54:00;117.67;;;5.50;;
4274;SDS011;2151;50.988;11.068;2022-09-09T15:56:27;115.70;;;4.87;;
4274;SDS011;2151;50.988;11.068;2022-09-09T15:58:55;116.40;;;4.80;;
4274;SDS011;2151;50.988;11.068;2022-09-09T16:01:21;117.37;;;5.13;;
4274;SDS011;2151;50.988;11.068;2022-09-09T16:03:48;116.70;;;5.00;;
4274;SDS011;2151;50.988;11.068;2022-09-09T16:06:17;118.40;;;5.03;;
4274;SDS011;2151;50.988;11.068;2022-09-09T16:08:45;116.27;;;5.10;;
4274;SDS011;2151;50.988;11.068;2022-09-09T16:11:13;117.27;;;5.20;;
4274;SDS011;2151;50.988;11.068;2022-09-09T16:13:44;116.67;;;4.87;;
4274;SDS011;2151;50.988;11.068;2022-09-09T16:16:16;117.40;;;5.20;;
4274;SDS011;2151;50.988;11.068;2022-09-09T16:18:45;116.57;;;4.60;;
4274;SDS011;2151;50.988;11.068;2022-09-09T16:21:21;116.27;;;4.90;;
4274;SDS011;2151;50.988;11.068;2022-09-09T16:23:49;118.17;;;5.30;;
4274;SDS011;2151;50.988;11.068;2022-09-09T16:26:17;117.23;;;4.50;;
4274;SDS011;2151;50.988;11.068;2022-09-09T16:28:43;115.80;;;4.47;;
4274;SDS011;2151;50.988;11.068;2022-09-09T16:31:11;117.27;;;4.70;;
4274;SDS011;2151;50.988;11.068;2022-09-09T16:33:40;117.40;;;4.73;;
4274;SDS011;2151;50.988;11.068;2022-09-09T16:36:07;116.63;;;4.87;;